Time;durP1;ratioP1;P1;durP2;ratioP2;P2;SDS_P1;SDS_P2;PMS_P1;PMS_P2;Temp;Humidity;BMP_temperature;BMP_pressure;BME280_temperature;BME280_humidity;BME280_pressure;Samples;Min_cycle;Max_cycle;Signal;HPM_P1;HPM_P2
2022/08/14 00:01:49;;;;;;;4.50;4.00;;;15.50;62.20;;;;;;5082947;28;20216;-61
2022/08/14 00:04:15;;;;;;;6.33;4.83;;;15.50;62.90;;;;;;5086335;28;20545;-61
2022/08/14 00:06:41;;;;;;;5.67;4.33;;;15.50;63.20;;;;;;5086085;28;20657;-61
2022/08/14 00:09:07;;;;;;;4.53;4.13;;;15.50;63.80;;;;;;5083444;28;20598;-61
2022/08/14 00:11:32;;;;;;;5.20;4.80;;;15.50;63.70;;;;;;5085525;28;20724;-61
2022/08/14 00:14:00;;;;;;;9.87;6.90;;;15.50;63.50;;;;;;5086003;28;20259;-60
2022/08/14 00:16:25;;;;;;;7.50;5.90;;;15.50;63.50;;;;;;5083498;28;20207;-61
2022/08/14 00:18:51;;;;;;;7.70;5.37;;;15.40;64.00;;;;;;5087243;28;20428;-61
2022/08/14 00:21:16;;;;;;;5.57;4.83;;;15.30;64.50;;;;;;5086380;28;20554;-61
2022/08/14 00:23:42;;;;;;;4.80;4.40;;;15.20;65.30;;;;;;5087034;28;20221;-60
2022/08/14 00:26:08;;;;;;;5.43;4.93;;;15.10;65.90;;;;;;5087716;28;20195;-62
2022/08/14 00:28:34;;;;;;;5.50;4.47;;;15.10;66.50;;;;;;5081746;28;20174;-60
2022/08/14 00:31:00;;;;;;;9.10;4.50;;;15.00;66.90;;;;;;5082752;28;20174;-61
2022/08/14 00:33:27;;;;;;;6.20;5.00;;;14.90;67.30;;;;;;5084094;28;20451;-61
2022/08/14 00:35:53;;;;;;;5.23;4.80;;;14.90;68.20;;;;;;5079677;28;20166;-61
2022/08/14 00:38:21;;;;;;;8.03;5.10;;;14.80;68.90;;;;;;5082736;28;20792;-60
2022/08/14 00:40:47;;;;;;;7.80;4.87;;;14.80;69.20;;;;;;5087728;28;20445;-60
2022/08/14 00:43:13;;;;;;;6.57;4.80;;;14.80;69.50;;;;;;5082221;28;21135;-60
2022/08/14 00:45:39;;;;;;;5.80;4.43;;;14.80;70.00;;;;;;5085290;28;20428;-60
2022/08/14 00:48:05;;;;;;;6.30;5.27;;;14.70;70.50;;;;;;5086295;28;20754;-61
2022/08/14 00:50:31;;;;;;;5.13;4.63;;;14.70;70.90;;;;;;5083649;28;20430;-60
2022/08/14 00:52:58;;;;;;;6.50;4.77;;;14.70;71.90;;;;;;5082867;28;20190;-62
2022/08/14 00:55:26;;;;;;;5.07;4.50;;;14.70;71.30;;;;;;5086976;28;20224;-60
2022/08/14 01:00:38;;;;;;;5.43;4.20;;;14.50;71.60;;;;;;5086489;28;20941;-62
2022/08/14 01:03:05;;;;;;;5.87;4.80;;;14.50;72.60;;;;;;5082252;28;20805;-61
2022/08/14 01:05:33;;;;;;;5.77;4.43;;;14.50;73.50;;;;;;5085125;28;20528;-60
2022/08/14 01:07:59;;;;;;;4.83;4.27;;;14.40;74.00;;;;;;5083668;28;20559;-61
2022/08/14 01:10:49;;;;;;;5.30;4.80;;;14.40;74.50;;;;;;5083405;28;20427;-62
2022/08/14 01:13:15;;;;;;;6.03;5.00;;;14.30;74.90;;;;;;5086287;28;20439;-61
2022/08/14 01:15:54;;;;;;;5.50;4.70;;;14.30;75.70;;;;;;5086149;28;20509;-61
2022/08/14 01:21:07;;;;;;;5.50;4.93;;;14.10;77.60;;;;;;5085028;28;20441;-61
2022/08/14 01:23:36;;;;;;;5.60;4.60;;;14.20;77.30;;;;;;5089212;28;20493;-61
2022/08/14 01:26:03;;;;;;;6.83;4.63;;;14.10;78.30;;;;;;5088205;28;20412;-61
2022/08/14 01:28:30;;;;;;;5.53;4.40;;;14.10;78.80;;;;;;5088636;28;20524;-61
2022/08/14 01:30:57;;;;;;;4.20;3.80;;;14.00;80.00;;;;;;5087644;28;20435;-61
2022/08/14 01:33:28;;;;;;;4.97;4.50;;;14.00;80.30;;;;;;5079270;28;20451;-61
2022/08/14 01:35:59;;;;;;;5.03;4.47;;;14.00;80.30;;;;;;5082612;28;20497;-61
2022/08/14 01:38:33;;;;;;;5.07;4.60;;;13.90;79.60;;;;;;5078432;28;20488;-61
2022/08/14 01:41:06;;;;;;;7.10;4.87;;;13.90;80.50;;;;;;5076010;28;20516;-61
2022/08/14 01:43:38;;;;;;;4.43;4.10;;;13.80;81.40;;;;;;5078899;28;20501;-61
2022/08/14 01:46:05;;;;;;;7.63;4.63;;;13.80;82.30;;;;;;5073860;28;20416;-62
2022/08/14 01:48:32;;;;;;;4.80;4.40;;;13.80;82.70;;;;;;5077777;28;20818;-62
2022/08/14 01:51:02;;;;;;;7.73;4.17;;;13.70;83.40;;;;;;5076300;28;20416;-60
2022/08/14 01:53:28;;;;;;;5.33;4.83;;;13.60;83.60;;;;;;5076941;28;20455;-61
2022/08/14 01:56:03;;;;;;;5.83;4.70;;;13.60;86.20;;;;;;5076972;28;20517;-61
2022/08/14 01:58:30;;;;;;;4.77;4.20;;;13.50;86.20;;;;;;5078650;28;20420;-61
2022/08/14 02:00:57;;;;;;;4.90;4.50;;;13.50;86.60;;;;;;5077292;28;20451;-61
2022/08/14 02:03:29;;;;;;;7.77;4.83;;;13.50;85.90;;;;;;5081147;28;20431;-62
2022/08/14 02:05:57;;;;;;;5.13;4.57;;;13.50;87.50;;;;;;5077808;28;20427;-62
2022/08/14 02:08:28;;;;;;;5.40;4.90;;;13.50;87.80;;;;;;5080301;28;20789;-60
2022/08/14 02:11:15;;;;;;;5.50;5.00;;;13.50;87.70;;;;;;5081310;28;20993;-61
2022/08/14 02:13:42;;;;;;;5.20;4.80;;;13.50;88.80;;;;;;5079776;28;20455;-62
2022/08/14 02:16:10;;;;;;;9.30;7.80;;;13.50;88.50;;;;;;5076688;28;20431;-61
2022/08/14 02:18:38;;;;;;;7.90;7.10;;;13.50;89.20;;;;;;5078916;28;20421;-61
2022/08/14 02:21:05;;;;;;;8.23;5.23;;;13.50;88.70;;;;;;5078929;28;21011;-61
2022/08/14 02:23:31;;;;;;;5.67;5.17;;;13.40;87.60;;;;;;5078440;28;20549;-60
2022/08/14 02:25:58;;;;;;;5.10;4.57;;;13.40;88.20;;;;;;5078589;28;20435;-61
2022/08/14 02:28:25;;;;;;;5.00;4.33;;;13.40;88.40;;;;;;5078509;28;20432;-62
2022/08/14 02:30:51;;;;;;;9.23;5.63;;;13.30;89.70;;;;;;5077890;28;20433;-61
2022/08/14 02:33:17;;;;;;;10.20;5.33;;;13.30;90.20;;;;;;5077104;28;20505;-59
2022/08/14 02:35:43;;;;;;;5.93;4.77;;;13.30;90.40;;;;;;5078708;28;20199;-61
2022/08/14 02:38:09;;;;;;;5.40;4.90;;;13.30;90.20;;;;;;5080624;28;20257;-61
2022/08/14 02:40:36;;;;;;;6.13;5.13;;;13.30;90.10;;;;;;5080222;28;21230;-62
2022/08/14 02:43:03;;;;;;;4.93;4.53;;;13.20;90.20;;;;;;5078420;28;20786;-61
2022/08/14 02:45:32;;;;;;;5.00;4.60;;;13.10;90.30;;;;;;5076324;28;21602;-60
2022/08/14 02:48:00;;;;;;;5.77;5.13;;;13.10;91.20;;;;;;5075364;28;20444;-60
2022/08/14 02:50:26;;;;;;;7.70;4.93;;;13.10;91.90;;;;;;5075444;28;20939;-62
2022/08/14 02:52:53;;;;;;;5.50;4.90;;;13.00;92.50;;;;;;5071046;28;20437;-62
2022/08/14 02:55:19;;;;;;;5.80;5.30;;;13.00;92.70;;;;;;5077022;28;20232;-61
2022/08/14 02:57:50;;;;;;;5.30;4.80;;;13.00;92.60;;;;;;5082034;28;20408;-60
2022/08/14 03:00:16;;;;;;;5.70;5.13;;;13.00;92.40;;;;;;5075830;28;21100;-60
2022/08/14 03:02:42;;;;;;;6.43;5.73;;;13.00;91.80;;;;;;5075894;28;20929;-61
2022/08/14 03:05:08;;;;;;;6.50;4.97;;;13.00;91.50;;;;;;5074794;28;20444;-61
2022/08/14 03:07:33;;;;;;;5.83;5.33;;;12.90;91.60;;;;;;5078138;28;20171;-62
2022/08/14 03:09:59;;;;;;;13.70;5.20;;;12.90;92.00;;;;;;5078309;28;20460;-60
2022/08/14 03:12:25;;;;;;;6.57;5.30;;;12.90;92.10;;;;;;5075904;28;20171;-62
2022/08/14 03:14:52;;;;;;;7.67;5.50;;;12.90;92.60;;;;;;5081665;28;20709;-60
2022/08/14 03:17:17;;;;;;;5.97;5.43;;;12.80;92.70;;;;;;5076057;28;21028;-61
2022/08/14 03:19:43;;;;;;;7.33;5.53;;;12.80;93.30;;;;;;5075053;28;20508;-60
2022/08/14 03:22:09;;;;;;;6.10;5.40;;;12.80;93.60;;;;;;5076648;28;20278;-61
2022/08/14 03:24:35;;;;;;;5.17;4.70;;;12.80;93.70;;;;;;5075291;28;20623;-61
2022/08/14 03:27:02;;;;;;;5.90;5.30;;;12.80;93.80;;;;;;5075291;28;20190;-61
2022/08/14 03:29:28;;;;;;;5.63;5.13;;;12.80;93.70;;;;;;5075608;28;20461;-60
2022/08/14 03:31:58;;;;;;;5.17;4.67;;;12.70;93.80;;;;;;5069967;28;20429;-59
2022/08/14 03:34:26;;;;;;;5.60;5.10;;;12.70;94.20;;;;;;5070001;28;20482;-60
2022/08/14 03:36:54;;;;;;;5.77;4.93;;;12.70;94.90;;;;;;5077081;28;20436;-60
2022/08/14 03:39:21;;;;;;;7.30;4.97;;;12.60;95.20;;;;;;5079643;28;20964;-62
2022/08/14 03:41:48;;;;;;;6.03;5.43;;;12.60;95.00;;;;;;5072903;28;20439;-62
2022/08/14 03:44:13;;;;;;;5.80;5.30;;;12.60;95.10;;;;;;5074713;28;20518;-62
2022/08/14 03:46:41;;;;;;;10.10;4.80;;;12.60;95.10;;;;;;5078672;28;20518;-61
2022/08/14 03:49:08;;;;;;;5.80;5.30;;;12.50;95.20;;;;;;5075961;28;20190;-60
2022/08/14 03:51:35;;;;;;;6.70;5.77;;;12.50;95.70;;;;;;5067988;28;20450;-61
2022/08/14 03:54:04;;;;;;;5.47;4.97;;;12.50;95.90;;;;;;5062500;28;20485;-60
2022/08/14 03:56:31;;;;;;;6.00;5.40;;;12.50;95.60;;;;;;5076179;28;20443;-62
2022/08/14 03:59:04;;;;;;;7.20;5.20;;;12.50;95.10;;;;;;5071184;28;20433;-61
2022/08/14 04:01:30;;;;;;;5.80;5.20;;;12.40;94.90;;;;;;5076641;28;20431;-61
2022/08/14 04:03:58;;;;;;;6.07;5.47;;;12.30;95.50;;;;;;5079819;28;20521;-65
2022/08/14 04:06:24;;;;;;;5.17;4.70;;;12.30;96.80;;;;;;5072801;28;20231;-60
2022/08/14 04:08:52;;;;;;;5.80;5.30;;;12.30;97.10;;;;;;5067468;28;20482;-61
2022/08/14 04:11:18;;;;;;;5.93;5.43;;;12.30;96.50;;;;;;5076501;28;20275;-61
2022/08/14 04:13:45;;;;;;;5.80;5.13;;;12.30;96.40;;;;;;5060767;28;20447;-61
2022/08/14 04:16:19;;;;;;;13.90;5.70;;;12.30;96.10;;;;;;5075747;28;20537;-62
2022/08/14 04:18:49;;;;;;;6.30;5.50;;;12.30;96.30;;;;;;5066060;28;20431;-62
2022/08/14 04:21:16;;;;;;;6.70;5.17;;;12.30;96.70;;;;;;5064590;28;20464;-62
2022/08/14 04:23:42;;;;;;;6.57;5.53;;;12.30;97.10;;;;;;5061449;28;20445;-61
2022/08/14 04:26:11;;;;;;;5.60;5.03;;;12.30;96.80;;;;;;5070250;28;20542;-61
2022/08/14 04:28:39;;;;;;;6.10;5.37;;;12.30;96.40;;;;;;5066443;28;20436;-65
2022/08/14 04:31:05;;;;;;;5.50;5.00;;;12.20;96.10;;;;;;5063732;28;21692;-64
2022/08/14 04:33:32;;;;;;;6.13;5.00;;;12.20;96.10;;;;;;5051179;28;20533;-64
2022/08/14 04:35:57;;;;;;;5.37;4.97;;;12.20;96.70;;;;;;5075724;28;20436;-65
2022/08/14 04:43:53;;;;;;;5.83;5.10;;;12.20;97.10;;;;;;5065790;28;20463;-64
2022/08/14 04:46:21;;;;;;;6.63;5.40;;;12.20;97.30;;;;;;5075093;28;20822;-64
2022/08/14 04:48:47;;;;;;;7.67;5.67;;;12.10;97.50;;;;;;5088329;28;20423;-63
2022/08/14 04:51:17;;;;;;;5.70;5.20;;;12.20;97.40;;;;;;5081580;28;20480;-64
2022/08/14 04:53:44;;;;;;;4.80;4.40;;;12.20;97.10;;;;;;5080756;28;20984;-64
2022/08/14 04:56:22;;;;;;;7.43;4.80;;;12.20;97.50;;;;;;5083040;28;20488;-65
2022/08/14 04:58:58;;;;;;;9.20;5.57;;;12.20;97.30;;;;;;5091402;28;20427;-64
2022/08/14 05:01:25;;;;;;;5.80;5.20;;;12.20;97.50;;;;;;5078346;28;21011;-64
2022/08/14 05:03:51;;;;;;;6.63;5.47;;;12.20;97.80;;;;;;5086965;28;20542;-64
2022/08/14 05:06:17;;;;;;;6.30;4.83;;;12.20;97.80;;;;;;5086340;28;20436;-64
2022/08/14 05:08:43;;;;;;;5.80;5.07;;;12.20;97.90;;;;;;5088767;28;20435;-64
2022/08/14 05:11:09;;;;;;;6.43;5.30;;;12.20;97.60;;;;;;5083879;28;20209;-64
2022/08/14 05:13:35;;;;;;;6.17;5.27;;;12.30;97.80;;;;;;5086621;28;20230;-64
2022/08/14 05:16:03;;;;;;;6.17;5.57;;;12.30;97.90;;;;;;5075983;28;20798;-64
2022/08/14 05:18:31;;;;;;;8.03;6.10;;;12.30;97.50;;;;;;5085388;28;20790;-65
2022/08/14 05:20:59;;;;;;;5.97;5.47;;;12.30;97.70;;;;;;5092089;28;20413;-63
2022/08/14 05:23:27;;;;;;;6.63;5.93;;;12.30;97.80;;;;;;5080866;28;20448;-64
2022/08/14 05:26:02;;;;;;;6.07;5.47;;;12.30;97.90;;;;;;5082853;28;20534;-65
2022/08/14 05:28:30;;;;;;;7.90;5.43;;;12.40;98.30;;;;;;5086390;28;20431;-63
2022/08/14 05:31:01;;;;;;;5.27;4.77;;;12.40;97.90;;;;;;5085685;28;21063;-64
2022/08/14 05:33:28;;;;;;;5.43;4.93;;;12.40;97.40;;;;;;5089984;28;20547;-64
2022/08/14 05:36:00;;;;;;;9.43;5.97;;;12.40;96.60;;;;;;5076762;28;20582;-64
2022/08/14 05:38:32;;;;;;;6.80;5.60;;;12.40;96.70;;;;;;5084789;28;20463;-64
2022/08/14 05:41:03;;;;;;;6.10;5.40;;;12.50;97.00;;;;;;5072202;28;20496;-64
2022/08/14 05:43:32;;;;;;;6.07;5.47;;;12.60;96.90;;;;;;5073042;28;20555;-64
2022/08/14 05:45:59;;;;;;;6.03;5.43;;;12.70;96.40;;;;;;5076767;28;20527;-64
2022/08/14 05:48:25;;;;;;;6.33;5.57;;;12.70;95.90;;;;;;5080359;28;20481;-65
2022/08/14 05:50:53;;;;;;;5.77;5.17;;;12.80;95.60;;;;;;5090950;28;20457;-64
2022/08/14 05:53:20;;;;;;;6.97;5.50;;;12.90;94.80;;;;;;5085966;28;20531;-64
2022/08/14 05:55:47;;;;;;;6.03;5.27;;;13.00;94.20;;;;;;5084248;28;20495;-64
2022/08/14 05:58:12;;;;;;;5.87;5.37;;;13.10;94.10;;;;;;5082997;28;20428;-64
2022/08/14 06:00:41;;;;;;;7.10;5.90;;;13.10;94.10;;;;;;5083149;28;20804;-64
2022/08/14 06:03:09;;;;;;;7.10;6.20;;;13.20;94.40;;;;;;5091091;28;20267;-65
2022/08/14 06:05:35;;;;;;;5.83;5.20;;;13.30;94.20;;;;;;5081784;28;20525;-64
2022/08/14 06:08:01;;;;;;;8.03;5.67;;;13.40;95.00;;;;;;5080819;28;21192;-64
2022/08/14 06:10:28;;;;;;;8.10;6.60;;;13.50;95.50;;;;;;5084112;28;20178;-65
2022/08/14 06:12:56;;;;;;;10.00;6.47;;;13.70;93.00;;;;;;5084261;28;20189;-63
2022/08/14 06:15:22;;;;;;;6.67;5.97;;;13.80;92.70;;;;;;5076290;28;20985;-64
2022/08/14 06:17:51;;;;;;;6.83;5.90;;;13.80;91.40;;;;;;5088423;28;20415;-65
2022/08/14 06:20:17;;;;;;;7.33;6.50;;;13.90;91.80;;;;;;5089681;28;20173;-64
2022/08/14 06:22:44;;;;;;;7.13;5.93;;;14.00;92.60;;;;;;5090019;28;20859;-65
2022/08/14 06:25:12;;;;;;;7.43;6.67;;;14.10;92.20;;;;;;5082678;28;20782;-71
2022/08/14 06:27:39;;;;;;;7.40;6.40;;;14.30;92.10;;;;;;5076070;28;20453;-65
2022/08/14 06:30:14;;;;;;;5.93;5.43;;;14.40;90.10;;;;;;5083886;28;20432;-65
2022/08/14 06:32:40;;;;;;;6.30;5.70;;;14.50;87.90;;;;;;5074178;28;20866;-63
2022/08/14 06:35:07;;;;;;;8.23;5.80;;;14.50;87.40;;;;;;5080887;28;20464;-65
2022/08/14 06:37:48;;;;;;;8.57;5.70;;;14.60;89.00;;;;;;5078317;28;20779;-65
2022/08/14 06:40:16;;;;;;;5.67;5.13;;;14.70;90.50;;;;;;5089238;28;20404;-65
2022/08/14 06:42:42;;;;;;;5.60;5.07;;;14.80;91.30;;;;;;5080202;28;20648;-65
2022/08/14 06:45:08;;;;;;;5.60;5.10;;;14.90;90.20;;;;;;5087420;28;21023;-65
2022/08/14 06:47:35;;;;;;;5.80;5.27;;;15.10;90.00;;;;;;5090662;28;20176;-66
2022/08/14 06:50:04;;;;;;;7.20;5.43;;;15.20;87.60;;;;;;5091199;28;20419;-64
2022/08/14 06:52:29;;;;;;;5.73;5.13;;;15.30;86.00;;;;;;5079807;28;20532;-64
2022/08/14 06:54:56;;;;;;;5.67;4.93;;;15.30;86.30;;;;;;5088259;28;20503;-64
2022/08/14 06:57:22;;;;;;;5.40;5.00;;;15.30;86.60;;;;;;5086519;28;20573;-65
2022/08/14 06:59:48;;;;;;;6.60;4.90;;;15.40;87.40;;;;;;5076660;28;20452;-64
2022/08/14 07:07:42;;;;;;;5.53;5.03;;;15.70;85.10;;;;;;5073386;28;21026;-65
2022/08/14 07:10:09;;;;;;;6.07;4.70;;;15.80;85.10;;;;;;5082964;28;20573;-66
2022/08/14 07:12:34;;;;;;;5.23;4.73;;;16.00;83.90;;;;;;5088459;28;20407;-65
2022/08/14 07:15:00;;;;;;;7.63;5.37;;;16.10;81.00;;;;;;5079508;28;20854;-64
2022/08/14 07:17:26;;;;;;;5.30;4.80;;;16.20;81.00;;;;;;5082775;28;20174;-65
2022/08/14 07:19:52;;;;;;;7.53;4.93;;;16.30;78.60;;;;;;5085411;28;20802;-65
2022/08/14 07:22:18;;;;;;;5.20;4.80;;;16.40;78.80;;;;;;5089107;28;20169;-65
2022/08/14 07:24:43;;;;;;;5.57;4.60;;;16.60;79.40;;;;;;5077712;28;20197;-65
2022/08/14 07:27:09;;;;;;;5.23;4.50;;;16.70;77.80;;;;;;5084052;28;20181;-66
2022/08/14 07:29:35;;;;;;;5.00;4.50;;;16.90;74.20;;;;;;5074686;28;20178;-66
2022/08/14 07:32:00;;;;;;;4.90;4.40;;;17.00;71.90;;;;;;5089156;28;20181;-64
2022/08/14 07:34:26;;;;;;;6.90;4.40;;;17.20;70.10;;;;;;5084206;28;20212;-65
2022/08/14 07:36:54;;;;;;;6.37;4.63;;;17.40;69.20;;;;;;5084866;28;20201;-65
2022/08/14 07:39:19;;;;;;;5.10;4.67;;;17.60;67.00;;;;;;5076271;28;20185;-65
2022/08/14 07:41:45;;;;;;;3.93;3.63;;;17.70;65.80;;;;;;5089745;28;20403;-66
2022/08/14 07:44:12;;;;;;;4.20;3.80;;;17.80;64.10;;;;;;5078759;28;20225;-66
2022/08/14 07:46:39;;;;;;;6.53;4.00;;;18.00;63.20;;;;;;5101423;28;20930;-66
2022/08/14 07:49:05;;;;;;;4.60;4.20;;;18.20;62.70;;;;;;5089374;28;20496;-66
2022/08/14 07:51:31;;;;;;;4.93;4.43;;;18.40;62.60;;;;;;5082041;28;20423;-65
2022/08/14 07:53:57;;;;;;;5.10;3.80;;;18.60;62.40;;;;;;5078242;28;20472;-66
2022/08/14 07:56:23;;;;;;;4.97;4.13;;;18.80;62.30;;;;;;5083739;28;20670;-66
2022/08/14 07:58:49;;;;;;;6.53;4.43;;;19.00;61.80;;;;;;5071313;28;20445;-65
2022/08/14 08:01:17;;;;;;;4.77;3.53;;;19.20;61.70;;;;;;5088915;28;20934;-65
2022/08/14 08:03:46;;;;;;;4.90;4.00;;;19.40;61.20;;;;;;5083817;28;20213;-66
2022/08/14 08:06:13;;;;;;;3.80;3.50;;;19.50;60.00;;;;;;5084953;28;20570;-66
2022/08/14 08:08:41;;;;;;;4.10;3.80;;;19.70;58.80;;;;;;5071126;28;20425;-65
2022/08/14 08:11:08;;;;;;;5.40;4.47;;;19.90;58.90;;;;;;5085416;28;20958;-66
2022/08/14 08:13:35;;;;;;;4.00;3.70;;;20.00;58.30;;;;;;5079419;28;20445;-66
2022/08/14 08:16:04;;;;;;;4.47;3.67;;;20.20;57.40;;;;;;5082175;28;20455;-66
2022/08/14 08:18:29;;;;;;;3.77;3.37;;;20.40;57.30;;;;;;5079404;28;20518;-66
2022/08/14 08:20:55;;;;;;;6.67;3.47;;;20.60;56.90;;;;;;5090666;28;20408;-65
2022/08/14 08:23:22;;;;;;;4.60;3.07;;;20.70;56.40;;;;;;5076877;28;20190;-66
2022/08/14 08:25:50;;;;;;;4.00;3.60;;;20.80;56.30;;;;;;5077200;28;20443;-66
2022/08/14 08:28:21;;;;;;;4.50;3.37;;;21.00;55.80;;;;;;5089196;28;20427;-66
2022/08/14 08:30:55;;;;;;;6.27;3.50;;;21.10;55.00;;;;;;5090918;28;20431;-66
2022/08/14 08:33:23;;;;;;;4.60;3.50;;;21.30;54.70;;;;;;5083911;28;20462;-65
2022/08/14 08:35:49;;;;;;;4.23;3.83;;;21.40;53.60;;;;;;5081778;28;20997;-66
2022/08/14 08:38:21;;;;;;;4.03;3.63;;;21.60;52.60;;;;;;5079731;28;20531;-66
2022/08/14 08:40:50;;;;;;;5.63;3.40;;;21.60;52.30;;;;;;5086642;28;20260;-65
2022/08/14 08:43:19;;;;;;;3.60;3.30;;;21.70;52.60;;;;;;5083436;28;20447;-66
2022/08/14 08:46:18;;;;;;;3.97;3.47;;;21.80;52.70;;;;;;5090148;28;20423;-66
2022/08/14 08:48:53;;;;;;;3.27;3.07;;;22.00;52.50;;;;;;5084163;28;20446;-66
2022/08/14 08:51:26;;;;;;;3.20;2.90;;;22.10;52.00;;;;;;5090591;28;20430;-66
2022/08/14 08:53:56;;;;;;;5.33;3.00;;;22.30;52.00;;;;;;5074897;28;20459;-65
2022/08/14 08:56:43;;;;;;;3.27;3.07;;;22.50;51.90;;;;;;5084111;28;20436;-66
2022/08/14 08:59:35;;;;;;;2.60;2.40;;;22.70;51.10;;;;;;5081530;28;20846;-66
2022/08/14 09:02:07;;;;;;;3.00;2.80;;;22.80;50.30;;;;;;5079660;28;20475;-66
2022/08/14 09:04:40;;;;;;;3.10;2.90;;;22.90;50.40;;;;;;5081560;28;20476;-66
2022/08/14 09:07:06;;;;;;;3.00;2.70;;;23.00;49.70;;;;;;5084137;28;20428;-65
2022/08/14 09:09:32;;;;;;;3.23;2.93;;;23.10;49.70;;;;;;5083897;28;20424;-66
2022/08/14 09:12:00;;;;;;;5.00;3.20;;;23.20;49.60;;;;;;5079676;28;20437;-66
2022/08/14 09:14:28;;;;;;;3.80;3.33;;;23.40;48.90;;;;;;5078000;28;20467;-66
2022/08/14 09:16:56;;;;;;;4.20;2.97;;;23.50;48.80;;;;;;5081329;28;20464;-65
2022/08/14 09:19:22;;;;;;;3.07;2.87;;;23.60;48.40;;;;;;5082720;28;20937;-66
2022/08/14 09:21:48;;;;;;;3.50;3.07;;;23.70;47.10;;;;;;5078437;28;20434;-66
2022/08/14 09:24:13;;;;;;;3.47;3.17;;;23.80;47.20;;;;;;5086133;28;20451;-66
2022/08/14 09:26:41;;;;;;;2.93;2.63;;;24.00;47.30;;;;;;5091009;28;20180;-66
2022/08/14 09:29:08;;;;;;;3.23;2.93;;;24.10;47.50;;;;;;5076245;28;20185;-68
2022/08/14 09:31:35;;;;;;;3.03;2.73;;;24.20;45.70;;;;;;5084593;28;20963;-67
2022/08/14 09:34:36;;;;;;;3.17;2.70;;;24.30;46.20;;;;;;5087488;28;21114;-66
2022/08/14 09:37:30;;;;;;;3.47;2.47;;;24.50;47.00;;;;;;5087399;28;20435;-65
2022/08/14 09:40:20;;;;;;;2.70;2.50;;;24.70;46.00;;;;;;5086967;28;20460;-66
2022/08/14 09:43:29;;;;;;;2.67;2.47;;;24.90;45.20;;;;;;5088910;28;20647;-67
2022/08/14 09:45:57;;;;;;;3.13;2.90;;;25.00;44.50;;;;;;5080242;28;20440;-66
2022/08/14 09:48:25;;;;;;;3.63;2.50;;;25.20;44.20;;;;;;5073244;28;20456;-66
2022/08/14 09:50:53;;;;;;;2.90;2.60;;;25.30;43.60;;;;;;5074586;28;20493;-66
2022/08/14 09:53:43;;;;;;;3.30;2.30;;;25.40;43.00;;;;;;5090418;28;20486;-66
2022/08/14 09:56:10;;;;;;;7.60;2.70;;;25.60;42.80;;;;;;5081193;28;20430;-66
2022/08/14 09:58:44;;;;;;;2.67;2.47;;;25.70;41.80;;;;;;5091697;28;20486;-66
2022/08/14 10:01:13;;;;;;;4.07;2.03;;;25.80;42.30;;;;;;5086397;28;20936;-66
2022/08/14 10:03:52;;;;;;;2.40;2.20;;;25.80;38.90;;;;;;5075660;28;20448;-66
2022/08/14 10:06:21;;;;;;;2.90;2.30;;;25.80;39.00;;;;;;5082646;28;20416;-66
2022/08/14 10:08:56;;;;;;;2.20;2.10;;;25.70;36.30;;;;;;5081537;28;20480;-67
2022/08/14 10:11:22;;;;;;;2.80;2.07;;;25.60;36.50;;;;;;5076928;28;20439;-67
2022/08/14 10:13:53;;;;;;;2.80;2.00;;;25.60;36.60;;;;;;5083166;28;20435;-66
2022/08/14 10:16:25;;;;;;;3.97;1.90;;;25.60;36.70;;;;;;5083135;28;20690;-66
2022/08/14 10:19:06;;;;;;;3.70;2.17;;;25.70;37.10;;;;;;5088070;28;20444;-66
2022/08/14 10:21:31;;;;;;;2.40;2.10;;;25.90;37.80;;;;;;5090520;28;20442;-66
2022/08/14 10:23:57;;;;;;;3.17;2.00;;;26.00;37.70;;;;;;5080018;28;20452;-66
2022/08/14 10:26:24;;;;;;;2.13;2.03;;;26.20;37.80;;;;;;5083302;28;20165;-66
2022/08/14 10:28:51;;;;;;;2.37;2.17;;;26.40;38.10;;;;;;5079080;28;20173;-66
2022/08/14 10:31:20;;;;;;;2.17;2.07;;;26.50;37.40;;;;;;5090335;28;20406;-66
2022/08/14 10:33:58;;;;;;;2.60;2.20;;;26.70;37.30;;;;;;5078620;28;20950;-66
2022/08/14 10:36:36;;;;;;;2.60;2.10;;;26.80;37.10;;;;;;5087736;28;20426;-66
2022/08/14 10:39:24;;;;;;;3.47;2.13;;;26.90;35.10;;;;;;5079664;28;20427;-66
2022/08/14 10:42:03;;;;;;;3.10;2.20;;;26.90;35.90;;;;;;5078574;28;20439;-67
2022/08/14 10:44:39;;;;;;;2.20;2.00;;;27.10;36.90;;;;;;5086050;28;20447;-67
2022/08/14 10:47:08;;;;;;;2.80;2.00;;;27.20;36.60;;;;;;5086831;28;20465;-66
2022/08/14 10:49:35;;;;;;;1.83;1.73;;;27.40;35.30;;;;;;5073414;28;20263;-66
2022/08/14 10:52:13;;;;;;;2.33;1.80;;;27.40;34.70;;;;;;5078977;28;20482;-67
2022/08/14 10:54:46;;;;;;;3.83;2.07;;;27.50;34.90;;;;;;5087863;28;20219;-66
2022/08/14 10:57:19;;;;;;;2.43;2.03;;;27.60;34.80;;;;;;5083959;28;20169;-66
2022/08/14 10:59:55;;;;;;;1.77;1.67;;;27.60;35.60;;;;;;5081096;28;20181;-65
2022/08/14 11:02:28;;;;;;;2.07;1.97;;;27.80;35.60;;;;;;5084428;28;20180;-67
2022/08/14 11:05:17;;;;;;;2.10;2.00;;;27.90;35.40;;;;;;5069299;28;20202;-66
2022/08/14 11:07:55;;;;;;;2.20;2.00;;;28.10;34.00;;;;;;5065156;28;20231;-66
2022/08/14 11:10:37;;;;;;;2.30;2.20;;;28.20;35.40;;;;;;5088974;28;20177;-67
2022/08/14 11:13:03;;;;;;;4.90;2.13;;;28.40;34.60;;;;;;5074958;28;20177;-66
2022/08/14 11:15:29;;;;;;;2.73;2.40;;;28.50;33.90;;;;;;5078283;28;20205;-67
2022/08/14 11:17:55;;;;;;;2.10;1.90;;;28.60;34.20;;;;;;5086384;28;20248;-66
2022/08/14 11:20:26;;;;;;;2.60;2.30;;;28.70;34.70;;;;;;5083917;28;20203;-67
2022/08/14 11:22:55;;;;;;;2.50;2.30;;;28.90;35.00;;;;;;5087696;28;20177;-67
2022/08/14 11:25:23;;;;;;;3.27;2.33;;;29.00;34.80;;;;;;5077349;28;20176;-67
2022/08/14 11:27:54;;;;;;;2.00;1.90;;;29.20;34.30;;;;;;5085145;28;20185;-66
2022/08/14 11:30:23;;;;;;;2.95;2.30;;;29.30;33.60;;;;;;5089672;28;20317;-66
2022/08/14 11:32:50;;;;;;;3.05;2.58;;;29.40;31.90;;;;;;5083048;28;20184;-66
2022/08/14 11:35:21;;;;;;;2.58;2.38;;;29.40;31.50;;;;;;5075149;28;20198;-66
2022/08/14 11:37:55;;;;;;;2.53;2.20;;;29.30;31.90;;;;;;5088218;28;20197;-66
2022/08/14 11:40:22;;;;;;;7.18;2.25;;;29.30;32.40;;;;;;5083876;28;20693;-65
2022/08/14 11:42:52;;;;;;;8.00;2.60;;;29.30;32.70;;;;;;5075186;28;20165;-65
2022/08/14 11:45:18;;;;;;;2.78;2.40;;;29.30;32.20;;;;;;5081732;28;20182;-65
2022/08/14 11:47:44;;;;;;;3.70;2.60;;;29.40;32.00;;;;;;5089790;28;20219;-67
2022/08/14 11:50:12;;;;;;;5.18;3.15;;;29.40;32.90;;;;;;5078712;28;20292;-66
2022/08/14 11:52:37;;;;;;;2.85;2.50;;;29.60;33.70;;;;;;5070716;28;20235;-67
2022/08/14 11:55:08;;;;;;;3.55;2.40;;;29.80;34.10;;;;;;5087358;28;20203;-66
2022/08/14 11:57:35;;;;;;;2.60;2.38;;;30.10;34.00;;;;;;5077527;28;20170;-66
2022/08/14 12:00:12;;;;;;;3.20;2.90;;;30.30;34.00;;;;;;5082606;28;20173;-66
2022/08/14 12:02:50;;;;;;;3.00;2.58;;;30.40;33.30;;;;;;5084066;28;20731;-66
2022/08/14 12:05:15;;;;;;;3.88;2.90;;;30.60;33.60;;;;;;5087525;28;20189;-67
2022/08/14 12:07:52;;;;;;;3.63;2.80;;;30.70;33.70;;;;;;5075995;28;20175;-67
2022/08/14 12:10:19;;;;;;;3.22;2.53;;;30.80;32.50;;;;;;5084941;28;20643;-66
2022/08/14 12:12:45;;;;;;;3.10;2.72;;;30.80;32.60;;;;;;5079685;28;20183;-67
2022/08/14 12:15:11;;;;;;;2.75;2.55;;;30.90;33.20;;;;;;5082604;28;20270;-67
2022/08/14 12:17:47;;;;;;;3.35;2.50;;;31.00;32.70;;;;;;5084453;28;20168;-68
2022/08/14 12:20:13;;;;;;;4.20;2.72;;;31.00;32.20;;;;;;5085531;28;20269;-67
2022/08/14 12:22:44;;;;;;;3.33;2.40;;;31.00;31.60;;;;;;5077217;28;20179;-67
2022/08/14 12:25:29;;;;;;;2.53;2.33;;;31.00;32.00;;;;;;5081307;28;20204;-65
2022/08/14 12:27:57;;;;;;;3.25;2.95;;;31.00;31.00;;;;;;5074176;28;20321;-67
2022/08/14 12:30:31;;;;;;;2.53;2.33;;;30.80;31.20;;;;;;5084257;28;20178;-65
2022/08/14 12:32:57;;;;;;;6.78;3.03;;;30.70;31.60;;;;;;5067660;28;20608;-66
2022/08/14 12:35:34;;;;;;;2.88;2.67;;;30.70;31.80;;;;;;5074176;28;20208;-66
2022/08/14 12:37:59;;;;;;;3.80;2.70;;;30.60;31.00;;;;;;5081173;28;20531;-66
2022/08/14 12:40:27;;;;;;;4.00;2.70;;;30.50;30.50;;;;;;5081048;28;20170;-66
2022/08/14 12:42:58;;;;;;;7.97;2.70;;;30.30;30.90;;;;;;5077016;28;20267;-66
2022/08/14 12:45:33;;;;;;;2.75;2.50;;;30.30;31.20;;;;;;5085544;28;20257;-66
2022/08/14 12:48:01;;;;;;;2.60;2.40;;;30.20;31.10;;;;;;5083471;28;20192;-66
2022/08/14 12:50:37;;;;;;;3.55;2.35;;;30.20;31.00;;;;;;5087867;28;20190;-66
2022/08/14 12:53:03;;;;;;;4.57;2.80;;;30.20;30.90;;;;;;5074610;28;20256;-66
2022/08/14 12:55:34;;;;;;;4.65;2.20;;;30.20;30.70;;;;;;5085627;28;20205;-66
2022/08/14 12:58:04;;;;;;;5.93;2.45;;;30.20;31.80;;;;;;5072423;28;20181;-66
2022/08/14 13:00:30;;;;;;;2.33;2.15;;;30.30;31.60;;;;;;5074211;28;20311;-66
2022/08/14 13:02:56;;;;;;;2.30;2.20;;;30.20;31.40;;;;;;5086345;28;20201;-66
2022/08/14 13:05:30;;;;;;;4.15;2.30;;;30.10;32.40;;;;;;5088349;28;20166;-66
2022/08/14 13:07:57;;;;;;;2.53;2.30;;;29.90;33.40;;;;;;5083050;28;20263;-66
2022/08/14 13:10:23;;;;;;;4.40;3.28;;;29.90;33.50;;;;;;5084758;28;20174;-65
2022/08/14 13:12:53;;;;;;;3.85;2.90;;;29.80;33.30;;;;;;5081481;28;20319;-65